sensor_id;sensor_type;location;lat;lon;timestamp;temperature;humidity
11055;DHT22;5580;50.106;8.702;2022-10-16T00:00:34;17.40;99.90
11055;DHT22;5580;50.106;8.702;2022-10-16T00:03:00;17.40;99.90
11055;DHT22;5580;50.106;8.702;2022-10-16T00:05:26;17.30;99.90
11055;DHT22;5580;50.106;8.702;2022-10-16T00:07:52;17.40;99.90
11055;DHT22;5580;50.106;8.702;2022-10-16T00:10:17;17.40;99.90
11055;DHT22;5580;50.106;8.702;2022-10-16T00:12:43;17.30;99.90
11055;DHT22;5580;50.106;8.702;2022-10-16T00:15:09;17.30;99.90
11055;DHT22;5580;50.106;8.702;2022-10-16T00:17:34;17.30;99.90
11055;DHT22;5580;50.106;8.702;2022-10-16T00:20:00;17.30;99.90
11055;DHT22;5580;50.106;8.702;2022-10-16T00:22:26;17.30;99.90
11055;DHT22;5580;50.106;8.702;2022-10-16T00:24:51;17.30;99.90
11055;DHT22;5580;50.106;8.702;2022-10-16T00:27:17;17.30;99.90
11055;DHT22;5580;50.106;8.702;2022-10-16T00:29:43;17.30;99.90
11055;DHT22;5580;50.106;8.702;2022-10-16T00:32:08;17.30;99.90
11055;DHT22;5580;50.106;8.702;2022-10-16T00:34:34;17.30;99.90
11055;DHT22;5580;50.106;8.702;2022-10-16T00:37:00;17.30;99.90
11055;DHT22;5580;50.106;8.702;2022-10-16T00:39:26;17.40;99.90
11055;DHT22;5580;50.106;8.702;2022-10-16T00:41:51;17.40;99.90
11055;DHT22;5580;50.106;8.702;2022-10-16T00:44:43;17.40;99.90
11055;DHT22;5580;50.106;8.702;2022-10-16T00:47:11;17.40;99.90
11055;DHT22;5580;50.106;8.702;2022-10-16T00:49:38;17.40;99.90
11055;DHT22;5580;50.106;8.702;2022-10-16T00:52:04;17.40;99.90
11055;DHT22;5580;50.106;8.702;2022-10-16T00:54:32;17.40;99.90
11055;DHT22;5580;50.106;8.702;2022-10-16T00:57:01;17.40;99.90
11055;DHT22;5580;50.106;8.702;2022-10-16T00:59:36;17.40;99.90
11055;DHT22;5580;50.106;8.702;2022-10-16T01:02:03;17.40;99.90
11055;DHT22;5580;50.106;8.702;2022-10-16T01:04:49;17.30;99.90
11055;DHT22;5580;50.106;8.702;2022-10-16T01:20:33;17.40;99.90
11055;DHT22;5580;50.106;8.702;2022-10-16T01:23:10;17.40;99.90
11055;DHT22;5580;50.106;8.702;2022-10-16T01:28:39;17.40;99.90
11055;DHT22;5580;50.106;8.702;2022-10-16T01:31:06;17.40;99.90
11055;DHT22;5580;50.106;8.702;2022-10-16T01:33:39;17.40;99.90
11055;DHT22;5580;50.106;8.702;2022-10-16T01:36:14;17.40;99.90
11055;DHT22;5580;50.106;8.702;2022-10-16T01:38:43;17.40;99.90
11055;DHT22;5580;50.106;8.702;2022-10-16T01:41:15;17.40;99.90
11055;DHT22;5580;50.106;8.702;2022-10-16T01:46:55;17.40;99.90
11055;DHT22;5580;50.106;8.702;2022-10-16T01:49:23;17.30;99.90
11055;DHT22;5580;50.106;8.702;2022-10-16T01:51:53;17.30;99.90
11055;DHT22;5580;50.106;8.702;2022-10-16T01:54:21;17.30;99.90
11055;DHT22;5580;50.106;8.702;2022-10-16T01:56:49;17.30;99.90
11055;DHT22;5580;50.106;8.702;2022-10-16T01:59:18;17.30;99.90
11055;DHT22;5580;50.106;8.702;2022-10-16T02:01:52;17.30;99.90
11055;DHT22;5580;50.106;8.702;2022-10-16T02:04:32;17.30;99.90
11055;DHT22;5580;50.106;8.702;2022-10-16T02:06:58;17.30;99.90
11055;DHT22;5580;50.106;8.702;2022-10-16T02:09:24;17.30;99.90
11055;DHT22;5580;50.106;8.702;2022-10-16T02:11:52;17.30;99.90
11055;DHT22;5580;50.106;8.702;2022-10-16T02:14:19;17.30;99.90
11055;DHT22;5580;50.106;8.702;2022-10-16T02:16:46;17.30;99.90
11055;DHT22;5580;50.106;8.702;2022-10-16T02:19:15;17.30;99.90
11055;DHT22;5580;50.106;8.702;2022-10-16T02:21:55;17.30;99.90
11055;DHT22;5580;50.106;8.702;2022-10-16T02:24:35;17.20;99.90
11055;DHT22;5580;50.106;8.702;2022-10-16T02:27:24;17.30;99.90
11055;DHT22;5580;50.106;8.702;2022-10-16T02:29:55;17.20;99.90
11055;DHT22;5580;50.106;8.702;2022-10-16T02:32:26;17.20;99.90
11055;DHT22;5580;50.106;8.702;2022-10-16T02:34:54;17.20;99.90
11055;DHT22;5580;50.106;8.702;2022-10-16T02:37:20;17.20;99.90
11055;DHT22;5580;50.106;8.702;2022-10-16T02:39:45;17.20;99.90
11055;DHT22;5580;50.106;8.702;2022-10-16T02:42:14;17.20;99.90
11055;DHT22;5580;50.106;8.702;2022-10-16T02:44:40;17.30;99.90
11055;DHT22;5580;50.106;8.702;2022-10-16T02:47:06;17.20;99.90
11055;DHT22;5580;50.106;8.702;2022-10-16T02:49:32;17.30;99.90
11055;DHT22;5580;50.106;8.702;2022-10-16T02:51:57;17.30;99.90
11055;DHT22;5580;50.106;8.702;2022-10-16T02:54:23;17.20;99.90
11055;DHT22;5580;50.106;8.702;2022-10-16T02:56:49;17.20;99.90
11055;DHT22;5580;50.106;8.702;2022-10-16T02:59:15;17.20;99.90
11055;DHT22;5580;50.106;8.702;2022-10-16T03:01:40;17.20;99.90
11055;DHT22;5580;50.106;8.702;2022-10-16T03:04:06;17.20;99.90
11055;DHT22;5580;50.106;8.702;2022-10-16T03:06:32;17.20;99.90
11055;DHT22;5580;50.106;8.702;2022-10-16T03:08:57;17.20;99.90
11055;DHT22;5580;50.106;8.702;2022-10-16T03:11:23;17.20;99.90
11055;DHT22;5580;50.106;8.702;2022-10-16T03:13:49;17.20;99.90
11055;DHT22;5580;50.106;8.702;2022-10-16T03:16:14;17.20;99.90
11055;DHT22;5580;50.106;8.702;2022-10-16T03:18:40;17.20;99.90
11055;DHT22;5580;50.106;8.702;2022-10-16T03:21:05;17.20;99.90
11055;DHT22;5580;50.106;8.702;2022-10-16T03:23:31;17.20;99.90
11055;DHT22;5580;50.106;8.702;2022-10-16T03:25:57;17.20;99.90
11055;DHT22;5580;50.106;8.702;2022-10-16T03:28:22;17.20;99.90
11055;DHT22;5580;50.106;8.702;2022-10-16T03:30:48;17.20;99.90
11055;DHT22;5580;50.106;8.702;2022-10-16T03:33:13;17.20;99.90
11055;DHT22;5580;50.106;8.702;2022-10-16T03:35:39;17.20;99.90
11055;DHT22;5580;50.106;8.702;2022-10-16T03:38:04;17.20;99.90
11055;DHT22;5580;50.106;8.702;2022-10-16T03:40:30;17.20;99.90
11055;DHT22;5580;50.106;8.702;2022-10-16T03:42:57;17.20;99.90
11055;DHT22;5580;50.106;8.702;2022-10-16T03:45:24;17.20;99.90
11055;DHT22;5580;50.106;8.702;2022-10-16T03:47:49;17.20;99.90
11055;DHT22;5580;50.106;8.702;2022-10-16T03:50:15;17.20;99.90
11055;DHT22;5580;50.106;8.702;2022-10-16T03:52:41;17.20;99.90
11055;DHT22;5580;50.106;8.702;2022-10-16T03:55:07;17.20;99.90
11055;DHT22;5580;50.106;8.702;2022-10-16T03:57:33;17.20;99.90
11055;DHT22;5580;50.106;8.702;2022-10-16T03:59:58;17.20;99.90
11055;DHT22;5580;50.106;8.702;2022-10-16T04:02:24;17.20;99.90
11055;DHT22;5580;50.106;8.702;2022-10-16T04:04:49;17.20;99.90
11055;DHT22;5580;50.106;8.702;2022-10-16T04:07:15;17.20;99.90
11055;DHT22;5580;50.106;8.702;2022-10-16T04:09:41;17.20;99.90
11055;DHT22;5580;50.106;8.702;2022-10-16T04:12:07;17.20;99.90
11055;DHT22;5580;50.106;8.702;2022-10-16T04:14:32;17.20;99.90
11055;DHT22;5580;50.106;8.702;2022-10-16T04:16:58;17.10;99.90
11055;DHT22;5580;50.106;8.702;2022-10-16T04:19:24;17.20;99.90
11055;DHT22;5580;50.106;8.702;2022-10-16T04:21:49;17.10;99.90
11055;DHT22;5580;50.106;8.702;2022-10-16T04:24:15;17.20;99.90
11055;DHT22;5580;50.106;8.702;2022-10-16T04:26:40;17.20;99.90
11055;DHT22;5580;50.106;8.702;2022-10-16T04:29:06;17.20;99.90
11055;DHT22;5580;50.106;8.702;2022-10-16T04:31:32;17.20;99.90
11055;DHT22;5580;50.106;8.702;2022-10-16T04:33:58;17.20;99.90
11055;DHT22;5580;50.106;8.702;2022-10-16T04:36:23;17.20;99.90
11055;DHT22;5580;50.106;8.702;2022-10-16T04:38:49;17.20;99.90
11055;DHT22;5580;50.106;8.702;2022-10-16T04:41:15;17.20;99.90
11055;DHT22;5580;50.106;8.702;2022-10-16T04:43:40;17.20;99.90
11055;DHT22;5580;50.106;8.702;2022-10-16T04:46:06;17.20;99.90
11055;DHT22;5580;50.106;8.702;2022-10-16T04:48:32;17.20;99.90
11055;DHT22;5580;50.106;8.702;2022-10-16T04:50:57;17.20;99.90
11055;DHT22;5580;50.106;8.702;2022-10-16T04:53:23;17.20;99.90
11055;DHT22;5580;50.106;8.702;2022-10-16T04:55:49;17.20;99.90
11055;DHT22;5580;50.106;8.702;2022-10-16T04:58:15;17.20;99.90
11055;DHT22;5580;50.106;8.702;2022-10-16T05:00:41;17.10;99.90
11055;DHT22;5580;50.106;8.702;2022-10-16T05:03:06;17.10;99.90
11055;DHT22;5580;50.106;8.702;2022-10-16T05:05:34;17.10;99.90
11055;DHT22;5580;50.106;8.702;2022-10-16T05:08:00;17.10;99.90
11055;DHT22;5580;50.106;8.702;2022-10-16T05:10:26;17.10;99.90
11055;DHT22;5580;50.106;8.702;2022-10-16T05:12:51;17.10;99.90
11055;DHT22;5580;50.106;8.702;2022-10-16T05:15:18;17.20;99.90
11055;DHT22;5580;50.106;8.702;2022-10-16T05:17:43;17.20;99.90
11055;DHT22;5580;50.106;8.702;2022-10-16T05:20:09;17.20;99.90
11055;DHT22;5580;50.106;8.702;2022-10-16T05:22:35;17.20;99.90
11055;DHT22;5580;50.106;8.702;2022-10-16T05:25:00;17.20;99.90
11055;DHT22;5580;50.106;8.702;2022-10-16T05:27:26;17.20;99.90
11055;DHT22;5580;50.106;8.702;2022-10-16T05:29:52;17.20;99.90
11055;DHT22;5580;50.106;8.702;2022-10-16T05:32:18;17.20;99.90
11055;DHT22;5580;50.106;8.702;2022-10-16T05:34:44;17.20;99.90
11055;DHT22;5580;50.106;8.702;2022-10-16T05:37:10;17.20;99.90
11055;DHT22;5580;50.106;8.702;2022-10-16T05:39:37;17.20;99.90
11055;DHT22;5580;50.106;8.702;2022-10-16T05:42:03;17.20;99.90
11055;DHT22;5580;50.106;8.702;2022-10-16T05:44:29;17.20;99.90
11055;DHT22;5580;50.106;8.702;2022-10-16T05:46:54;17.10;99.90
11055;DHT22;5580;50.106;8.702;2022-10-16T05:49:20;17.10;99.90
11055;DHT22;5580;50.106;8.702;2022-10-16T05:51:46;17.10;99.90
11055;DHT22;5580;50.106;8.702;2022-10-16T05:54:11;17.10;99.90
11055;DHT22;5580;50.106;8.702;2022-10-16T05:56:37;17.10;99.90
11055;DHT22;5580;50.106;8.702;2022-10-16T05:59:03;17.10;99.90
11055;DHT22;5580;50.106;8.702;2022-10-16T06:01:29;17.10;99.90
11055;DHT22;5580;50.106;8.702;2022-10-16T06:03:56;17.10;99.90
11055;DHT22;5580;50.106;8.702;2022-10-16T06:06:25;17.10;99.90
11055;DHT22;5580;50.106;8.702;2022-10-16T06:08:52;17.10;99.90
11055;DHT22;5580;50.106;8.702;2022-10-16T06:11:21;17.10;99.90
11055;DHT22;5580;50.106;8.702;2022-10-16T06:13:51;17.10;99.90
11055;DHT22;5580;50.106;8.702;2022-10-16T06:16:17;17.20;99.90
11055;DHT22;5580;50.106;8.702;2022-10-16T06:18:43;17.20;99.90
11055;DHT22;5580;50.106;8.702;2022-10-16T06:21:11;17.20;99.90
11055;DHT22;5580;50.106;8.702;2022-10-16T06:23:36;17.20;99.90
11055;DHT22;5580;50.106;8.702;2022-10-16T06:26:10;17.20;99.90
11055;DHT22;5580;50.106;8.702;2022-10-16T06:28:37;17.20;99.90
11055;DHT22;5580;50.106;8.702;2022-10-16T06:31:04;17.20;99.90
11055;DHT22;5580;50.106;8.702;2022-10-16T06:33:30;17.20;99.90
11055;DHT22;5580;50.106;8.702;2022-10-16T06:36:04;17.20;99.90
11055;DHT22;5580;50.106;8.702;2022-10-16T06:38:30;17.20;99.90
11055;DHT22;5580;50.106;8.702;2022-10-16T06:40:56;17.10;99.90
11055;DHT22;5580;50.106;8.702;2022-10-16T06:43:22;17.10;99.90
11055;DHT22;5580;50.106;8.702;2022-10-16T06:45:55;17.10;99.90
11055;DHT22;5580;50.106;8.702;2022-10-16T06:48:21;17.20;99.90
11055;DHT22;5580;50.106;8.702;2022-10-16T06:51:01;17.10;99.90
11055;DHT22;5580;50.106;8.702;2022-10-16T06:53:30;17.20;99.90
11055;DHT22;5580;50.106;8.702;2022-10-16T06:55:56;17.10;99.90
11055;DHT22;5580;50.106;8.702;2022-10-16T06:58:22;17.20;99.90
11055;DHT22;5580;50.106;8.702;2022-10-16T07:00:48;17.20;99.90
11055;DHT22;5580;50.106;8.702;2022-10-16T07:03:14;17.20;99.90
11055;DHT22;5580;50.106;8.702;2022-10-16T07:05:41;17.20;99.90
11055;DHT22;5580;50.106;8.702;2022-10-16T07:08:07;17.20;99.90
11055;DHT22;5580;50.106;8.702;2022-10-16T07:10:33;17.30;99.90
11055;DHT22;5580;50.106;8.702;2022-10-16T07:12:59;17.30;99.90
11055;DHT22;5580;50.106;8.702;2022-10-16T07:15:25;17.30;99.90
11055;DHT22;5580;50.106;8.702;2022-10-16T07:17:51;17.30;99.90
11055;DHT22;5580;50.106;8.702;2022-10-16T07:20:17;17.30;99.90
11055;DHT22;5580;50.106;8.702;2022-10-16T07:22:43;17.30;99.90
11055;DHT22;5580;50.106;8.702;2022-10-16T07:25:09;17.30;99.90
11055;DHT22;5580;50.106;8.702;2022-10-16T07:27:34;17.30;99.90
11055;DHT22;5580;50.106;8.702;2022-10-16T07:30:00;17.30;99.90
11055;DHT22;5580;50.106;8.702;2022-10-16T07:32:26;17.30;99.90
11055;DHT22;5580;50.106;8.702;2022-10-16T07:34:52;17.30;99.90
11055;DHT22;5580;50.106;8.702;2022-10-16T07:37:18;17.40;99.90
11055;DHT22;5580;50.106;8.702;2022-10-16T07:39:44;17.40;99.90
11055;DHT22;5580;50.106;8.702;2022-10-16T07:42:09;17.40;99.90
11055;DHT22;5580;50.106;8.702;2022-10-16T07:44:35;17.40;99.90
11055;DHT22;5580;50.106;8.702;2022-10-16T07:47:00;17.40;99.90
11055;DHT22;5580;50.106;8.702;2022-10-16T07:49:26;17.40;99.90
11055;DHT22;5580;50.106;8.702;2022-10-16T07:51:52;17.40;99.90
11055;DHT22;5580;50.106;8.702;2022-10-16T07:54:17;17.40;99.90
11055;DHT22;5580;50.106;8.702;2022-10-16T07:56:43;17.40;99.90
11055;DHT22;5580;50.106;8.702;2022-10-16T07:59:08;17.40;99.90
11055;DHT22;5580;50.106;8.702;2022-10-16T08:01:34;17.50;99.90
11055;DHT22;5580;50.106;8.702;2022-10-16T08:04:00;17.50;99.90
11055;DHT22;5580;50.106;8.702;2022-10-16T08:06:25;17.50;99.90
11055;DHT22;5580;50.106;8.702;2022-10-16T08:08:51;17.50;99.90
11055;DHT22;5580;50.106;8.702;2022-10-16T08:11:17;17.50;99.90
11055;DHT22;5580;50.106;8.702;2022-10-16T08:13:42;17.50;99.90
11055;DHT22;5580;50.106;8.702;2022-10-16T08:16:08;17.50;99.90
11055;DHT22;5580;50.106;8.702;2022-10-16T08:18:36;17.50;99.90
11055;DHT22;5580;50.106;8.702;2022-10-16T08:21:03;17.50;99.90
11055;DHT22;5580;50.106;8.702;2022-10-16T08:23:29;17.60;99.90
11055;DHT22;5580;50.106;8.702;2022-10-16T08:25:56;17.50;99.90
11055;DHT22;5580;50.106;8.702;2022-10-16T08:28:22;17.60;99.90
11055;DHT22;5580;50.106;8.702;2022-10-16T08:30:48;17.60;99.90
11055;DHT22;5580;50.106;8.702;2022-10-16T08:33:14;17.60;99.90
11055;DHT22;5580;50.106;8.702;2022-10-16T08:35:40;17.60;99.90
11055;DHT22;5580;50.106;8.702;2022-10-16T08:38:06;17.60;99.90
11055;DHT22;5580;50.106;8.702;2022-10-16T08:40:34;17.60;99.90
11055;DHT22;5580;50.106;8.702;2022-10-16T08:43:27;17.60;99.90
11055;DHT22;5580;50.106;8.702;2022-10-16T08:49:10;17.60;99.90
11055;DHT22;5580;50.106;8.702;2022-10-16T08:51:31;17.60;99.90
11055;DHT22;5580;50.106;8.702;2022-10-16T08:53:59;17.60;99.90
11055;DHT22;5580;50.106;8.702;2022-10-16T08:56:25;17.60;99.90
11055;DHT22;5580;50.106;8.702;2022-10-16T08:58:52;17.60;99.90
11055;DHT22;5580;50.106;8.702;2022-10-16T09:01:20;17.60;99.90
11055;DHT22;5580;50.106;8.702;2022-10-16T09:03:58;17.60;99.90
11055;DHT22;5580;50.106;8.702;2022-10-16T09:06:44;17.60;99.90
11055;DHT22;5580;50.106;8.702;2022-10-16T09:09:20;17.60;99.90
11055;DHT22;5580;50.106;8.702;2022-10-16T09:22:41;17.60;99.90
11055;DHT22;5580;50.106;8.702;2022-10-16T09:25:21;17.60;99.90
11055;DHT22;5580;50.106;8.702;2022-10-16T09:27:48;17.60;99.90
11055;DHT22;5580;50.106;8.702;2022-10-16T09:30:19;17.60;99.90
11055;DHT22;5580;50.106;8.702;2022-10-16T09:32:47;17.60;99.90
11055;DHT22;5580;50.106;8.702;2022-10-16T09:35:22;17.60;99.90
11055;DHT22;5580;50.106;8.702;2022-10-16T09:37:51;17.60;99.90
11055;DHT22;5580;50.106;8.702;2022-10-16T09:42:57;17.60;99.90
11055;DHT22;5580;50.106;8.702;2022-10-16T09:45:26;17.60;99.90
11055;DHT22;5580;50.106;8.702;2022-10-16T09:47:52;17.60;99.90
11055;DHT22;5580;50.106;8.702;2022-10-16T09:50:26;17.60;99.90
11055;DHT22;5580;50.106;8.702;2022-10-16T09:53:14;17.60;99.90
11055;DHT22;5580;50.106;8.702;2022-10-16T09:55:50;17.60;99.90
11055;DHT22;5580;50.106;8.702;2022-10-16T09:58:16;17.60;99.90
11055;DHT22;5580;50.106;8.702;2022-10-16T10:00:42;17.60;99.90
11055;DHT22;5580;50.106;8.702;2022-10-16T10:03:38;17.60;99.90
11055;DHT22;5580;50.106;8.702;2022-10-16T10:06:24;17.60;99.90
11055;DHT22;5580;50.106;8.702;2022-10-16T10:08:54;17.60;99.90
11055;DHT22;5580;50.106;8.702;2022-10-16T10:16:43;17.60;99.90
11055;DHT22;5580;50.106;8.702;2022-10-16T10:19:21;17.60;99.90
11055;DHT22;5580;50.106;8.702;2022-10-16T10:21:47;17.70;99.90
11055;DHT22;5580;50.106;8.702;2022-10-16T10:24:14;17.70;99.90
11055;DHT22;5580;50.106;8.702;2022-10-16T10:27:10;17.70;99.90
11055;DHT22;5580;50.106;8.702;2022-10-16T10:29:46;17.70;99.90
11055;DHT22;5580;50.106;8.702;2022-10-16T10:35:33;17.70;99.90
11055;DHT22;5580;50.106;8.702;2022-10-16T10:43:31;17.70;99.90
11055;DHT22;5580;50.106;8.702;2022-10-16T10:46:04;17.80;99.90
11055;DHT22;5580;50.106;8.702;2022-10-16T10:49:01;17.80;99.90
11055;DHT22;5580;50.106;8.702;2022-10-16T10:51:34;17.80;99.90
11055;DHT22;5580;50.106;8.702;2022-10-16T10:54:26;17.80;99.90
11055;DHT22;5580;50.106;8.702;2022-10-16T10:57:08;17.90;99.90
11055;DHT22;5580;50.106;8.702;2022-10-16T10:59:49;17.90;99.90
11055;DHT22;5580;50.106;8.702;2022-10-16T11:02:31;17.90;99.90
11055;DHT22;5580;50.106;8.702;2022-10-16T11:08:15;18.00;99.90
11055;DHT22;5580;50.106;8.702;2022-10-16T11:10:53;18.00;99.90
11055;DHT22;5580;50.106;8.702;2022-10-16T11:13:34;18.00;99.90
11055;DHT22;5580;50.106;8.702;2022-10-16T11:16:10;18.10;99.90
11055;DHT22;5580;50.106;8.702;2022-10-16T11:18:42;18.10;99.90
11055;DHT22;5580;50.106;8.702;2022-10-16T11:21:14;18.10;99.90
11055;DHT22;5580;50.106;8.702;2022-10-16T11:24:14;18.20;99.90
11055;DHT22;5580;50.106;8.702;2022-10-16T11:26:42;18.20;99.90
11055;DHT22;5580;50.106;8.702;2022-10-16T11:29:25;18.20;99.90
11055;DHT22;5580;50.106;8.702;2022-10-16T11:32:18;18.30;99.90
11055;DHT22;5580;50.106;8.702;2022-10-16T11:34:49;18.30;99.90
11055;DHT22;5580;50.106;8.702;2022-10-16T11:37:24;18.30;99.90
11055;DHT22;5580;50.106;8.702;2022-10-16T11:39:54;18.30;99.90
11055;DHT22;5580;50.106;8.702;2022-10-16T11:42:30;18.30;99.90
11055;DHT22;5580;50.106;8.702;2022-10-16T11:47:40;18.30;99.90
11055;DHT22;5580;50.106;8.702;2022-10-16T11:55:36;18.40;99.90
11055;DHT22;5580;50.106;8.702;2022-10-16T11:58:07;18.40;99.90
11055;DHT22;5580;50.106;8.702;2022-10-16T12:08:53;18.50;99.90
11055;DHT22;5580;50.106;8.702;2022-10-16T12:17:02;18.60;99.90
11055;DHT22;5580;50.106;8.702;2022-10-16T12:19:29;18.60;99.90
11055;DHT22;5580;50.106;8.702;2022-10-16T12:21:58;18.60;99.90
11055;DHT22;5580;50.106;8.702;2022-10-16T12:24:42;18.60;99.90
11055;DHT22;5580;50.106;8.702;2022-10-16T12:30:02;18.70;99.90
11055;DHT22;5580;50.106;8.702;2022-10-16T12:34:57;18.70;99.90
11055;DHT22;5580;50.106;8.702;2022-10-16T12:37:29;18.70;99.90
11055;DHT22;5580;50.106;8.702;2022-10-16T12:39:56;18.70;99.90
11055;DHT22;5580;50.106;8.702;2022-10-16T12:44:51;18.80;99.90
11055;DHT22;5580;50.106;8.702;2022-10-16T12:47:38;18.80;99.90
11055;DHT22;5580;50.106;8.702;2022-10-16T12:52:50;18.90;99.90
11055;DHT22;5580;50.106;8.702;2022-10-16T12:55:18;18.90;99.90
11055;DHT22;5580;50.106;8.702;2022-10-16T13:05:50;19.00;99.90
11055;DHT22;5580;50.106;8.702;2022-10-16T13:09:02;19.00;99.90
11055;DHT22;5580;50.106;8.702;2022-10-16T13:13:55;19.00;99.90
11055;DHT22;5580;50.106;8.702;2022-10-16T13:24:26;19.00;99.90
11055;DHT22;5580;50.106;8.702;2022-10-16T13:29:54;19.10;99.90
11055;DHT22;5580;50.106;8.702;2022-10-16T13:32:26;19.10;99.90
11055;DHT22;5580;50.106;8.702;2022-10-16T13:34:52;19.10;99.90
11055;DHT22;5580;50.106;8.702;2022-10-16T13:37:21;19.10;99.90
11055;DHT22;5580;50.106;8.702;2022-10-16T13:39:47;19.10;99.90
11055;DHT22;5580;50.106;8.702;2022-10-16T13:42:27;19.10;99.90
11055;DHT22;5580;50.106;8.702;2022-10-16T13:44:54;19.10;99.90
11055;DHT22;5580;50.106;8.702;2022-10-16T13:49:59;19.10;99.90
11055;DHT22;5580;50.106;8.702;2022-10-16T13:52:25;19.20;99.90
11055;DHT22;5580;50.106;8.702;2022-10-16T13:54:50;19.20;99.90
11055;DHT22;5580;50.106;8.702;2022-10-16T13:57:17;19.20;99.90
11055;DHT22;5580;50.106;8.702;2022-10-16T13:59:43;19.20;99.90
11055;DHT22;5580;50.106;8.702;2022-10-16T14:04:45;19.20;99.90
11055;DHT22;5580;50.106;8.702;2022-10-16T14:07:17;19.20;99.90
11055;DHT22;5580;50.106;8.702;2022-10-16T14:09:48;19.20;99.90
11055;DHT22;5580;50.106;8.702;2022-10-16T14:12:15;19.30;99.90
11055;DHT22;5580;50.106;8.702;2022-10-16T14:14:46;19.20;99.90
11055;DHT22;5580;50.106;8.702;2022-10-16T14:17:33;19.30;99.90
11055;DHT22;5580;50.106;8.702;2022-10-16T14:20:03;19.30;99.90
11055;DHT22;5580;50.106;8.702;2022-10-16T14:22:33;19.30;99.90
11055;DHT22;5580;50.106;8.702;2022-10-16T14:24:59;19.20;99.90
11055;DHT22;5580;50.106;8.702;2022-10-16T14:27:30;19.30;99.90
11055;DHT22;5580;50.106;8.702;2022-10-16T14:30:18;19.30;99.90
11055;DHT22;5580;50.106;8.702;2022-10-16T14:33:06;19.30;99.90
11055;DHT22;5580;50.106;8.702;2022-10-16T14:35:37;19.30;99.90
11055;DHT22;5580;50.106;8.702;2022-10-16T14:38:04;19.20;99.90
11055;DHT22;5580;50.106;8.702;2022-10-16T14:40:33;19.30;99.90
11055;DHT22;5580;50.106;8.702;2022-10-16T14:43:01;19.30;99.90
11055;DHT22;5580;50.106;8.702;2022-10-16T14:45:29;19.30;99.90
11055;DHT22;5580;50.106;8.702;2022-10-16T14:48:13;19.30;99.90
11055;DHT22;5580;50.106;8.702;2022-10-16T14:50:40;19.30;99.90
11055;DHT22;5580;50.106;8.702;2022-10-16T14:53:12;19.30;99.90
11055;DHT22;5580;50.106;8.702;2022-10-16T14:55:39;19.30;99.90
11055;DHT22;5580;50.106;8.702;2022-10-16T14:58:05;19.30;99.90
11055;DHT22;5580;50.106;8.702;2022-10-16T15:00:31;19.30;99.90
11055;DHT22;5580;50.106;8.702;2022-10-16T15:02:57;19.30;99.90
11055;DHT22;5580;50.106;8.702;2022-10-16T15:05:25;19.30;99.90
11055;DHT22;5580;50.106;8.702;2022-10-16T15:07:52;19.30;99.90
11055;DHT22;5580;50.106;8.702;2022-10-16T15:10:19;19.40;99.90
11055;DHT22;5580;50.106;8.702;2022-10-16T15:12:46;19.40;99.90
11055;DHT22;5580;50.106;8.702;2022-10-16T15:18:02;19.40;99.90
11055;DHT22;5580;50.106;8.702;2022-10-16T15:20:31;19.30;99.90
11055;DHT22;5580;50.106;8.702;2022-10-16T15:23:02;19.40;99.90
11055;DHT22;5580;50.106;8.702;2022-10-16T15:25:36;19.40;99.90
11055;DHT22;5580;50.106;8.702;2022-10-16T15:28:03;19.40;99.90
11055;DHT22;5580;50.106;8.702;2022-10-16T15:30:30;19.40;99.90
11055;DHT22;5580;50.106;8.702;2022-10-16T15:32:56;19.40;99.90
11055;DHT22;5580;50.106;8.702;2022-10-16T15:35:21;19.40;99.90
11055;DHT22;5580;50.106;8.702;2022-10-16T15:37:48;19.40;99.90
11055;DHT22;5580;50.106;8.702;2022-10-16T15:40:14;19.40;99.90
11055;DHT22;5580;50.106;8.702;2022-10-16T15:42:40;19.40;99.90
11055;DHT22;5580;50.106;8.702;2022-10-16T15:45:06;19.40;99.90
11055;DHT22;5580;50.106;8.702;2022-10-16T15:47:32;19.40;99.90
11055;DHT22;5580;50.106;8.702;2022-10-16T15:49:58;19.40;99.90
11055;DHT22;5580;50.106;8.702;2022-10-16T15:52:24;19.40;99.90
11055;DHT22;5580;50.106;8.702;2022-10-16T15:54:49;19.40;99.90
11055;DHT22;5580;50.106;8.702;2022-10-16T15:57:15;19.40;99.90
11055;DHT22;5580;50.106;8.702;2022-10-16T15:59:40;19.40;99.90
11055;DHT22;5580;50.106;8.702;2022-10-16T16:02:07;19.40;99.90
11055;DHT22;5580;50.106;8.702;2022-10-16T16:04:33;19.40;99.90
11055;DHT22;5580;50.106;8.702;2022-10-16T16:06:58;19.40;99.90
11055;DHT22;5580;50.106;8.702;2022-10-16T16:09:24;19.40;99.90
11055;DHT22;5580;50.106;8.702;2022-10-16T16:11:49;19.40;99.90
11055;DHT22;5580;50.106;8.702;2022-10-16T16:14:16;19.40;99.90
11055;DHT22;5580;50.106;8.702;2022-10-16T16:16:42;19.40;99.90
11055;DHT22;5580;50.106;8.702;2022-10-16T16:19:08;19.40;99.90
11055;DHT22;5580;50.106;8.702;2022-10-16T16:21:34;19.40;99.90
11055;DHT22;5580;50.106;8.702;2022-10-16T16:24:00;19.40;99.90
11055;DHT22;5580;50.106;8.702;2022-10-16T16:26:26;19.40;99.90
11055;DHT22;5580;50.106;8.702;2022-10-16T16:28:55;19.40;99.90
11055;DHT22;5580;50.106;8.702;2022-10-16T16:31:24;19.40;99.90
11055;DHT22;5580;50.106;8.702;2022-10-16T16:33:50;19.40;99.90
11055;DHT22;5580;50.106;8.702;2022-10-16T16:36:17;19.40;99.90
11055;DHT22;5580;50.106;8.702;2022-10-16T16:38:43;19.40;99.90
11055;DHT22;5580;50.106;8.702;2022-10-16T16:41:24;19.40;99.90
11055;DHT22;5580;50.106;8.702;2022-10-16T16:43:51;19.40;99.90
11055;DHT22;5580;50.106;8.702;2022-10-16T16:46:17;19.40;99.90
11055;DHT22;5580;50.106;8.702;2022-10-16T16:48:44;19.40;99.90
11055;DHT22;5580;50.106;8.702;2022-10-16T16:51:12;19.40;99.90
11055;DHT22;5580;50.106;8.702;2022-10-16T16:53:40;19.40;99.90
11055;DHT22;5580;50.106;8.702;2022-10-16T16:56:06;19.40;99.90
11055;DHT22;5580;50.106;8.702;2022-10-16T16:58:32;19.40;99.90
11055;DHT22;5580;50.106;8.702;2022-10-16T17:00:58;19.30;99.90
11055;DHT22;5580;50.106;8.702;2022-10-16T17:03:34;19.40;99.90
11055;DHT22;5580;50.106;8.702;2022-10-16T17:06:01;19.40;99.90
11055;DHT22;5580;50.106;8.702;2022-10-16T17:08:28;19.40;99.90
11055;DHT22;5580;50.106;8.702;2022-10-16T17:10:54;19.40;99.90
11055;DHT22;5580;50.106;8.702;2022-10-16T17:13:28;19.40;99.90
11055;DHT22;5580;50.106;8.702;2022-10-16T17:15:54;19.40;99.90
11055;DHT22;5580;50.106;8.702;2022-10-16T17:18:22;19.40;99.90
11055;DHT22;5580;50.106;8.702;2022-10-16T17:20:49;19.40;99.90
11055;DHT22;5580;50.106;8.702;2022-10-16T17:23:16;19.30;99.90
11055;DHT22;5580;50.106;8.702;2022-10-16T17:25:42;19.30;99.90
11055;DHT22;5580;50.106;8.702;2022-10-16T17:28:09;19.20;99.90
11055;DHT22;5580;50.106;8.702;2022-10-16T17:30:37;19.20;99.90
11055;DHT22;5580;50.106;8.702;2022-10-16T17:33:04;19.20;99.90
11055;DHT22;5580;50.106;8.702;2022-10-16T17:35:35;19.10;99.90
11055;DHT22;5580;50.106;8.702;2022-10-16T17:38:00;19.10;99.90
11055;DHT22;5580;50.106;8.702;2022-10-16T17:40:26;19.10;99.90
11055;DHT22;5580;50.106;8.702;2022-10-16T17:42:52;19.10;99.90
11055;DHT22;5580;50.106;8.702;2022-10-16T17:45:17;19.10;99.90
11055;DHT22;5580;50.106;8.702;2022-10-16T17:47:43;19.10;99.90
11055;DHT22;5580;50.106;8.702;2022-10-16T17:50:08;19.20;99.90